sensor_id;sensor_type;location;lat;lon;timestamp;pressure;altitude;pressure_sealevel;temperature;humidity
11487;BME280;10510;47.942;9.442;2023-04-04T00:01:00;95061.22;;;-2.24;100.00
11487;BME280;10510;47.942;9.442;2023-04-04T00:03:00;95071.66;;;-2.27;100.00
11487;BME280;10510;47.942;9.442;2023-04-04T00:05:01;95070.03;;;-2.28;100.00
11487;BME280;10510;47.942;9.442;2023-04-04T00:07:01;95065.00;;;-2.30;100.00
11487;BME280;10510;47.942;9.442;2023-04-04T00:09:01;95063.34;;;-2.31;100.00
11487;BME280;10510;47.942;9.442;2023-04-04T00:11:01;95056.69;;;-2.33;100.00
11487;BME280;10510;47.942;9.442;2023-04-04T00:13:02;95060.97;;;-2.34;100.00
11487;BME280;10510;47.942;9.442;2023-04-04T00:15:02;95054.31;;;-2.36;100.00
11487;BME280;10510;47.942;9.442;2023-04-04T00:17:03;95063.81;;;-2.38;100.00
11487;BME280;10510;47.942;9.442;2023-04-04T00:19:03;95059.63;;;-2.39;100.00
11487;BME280;10510;47.942;9.442;2023-04-04T00:21:03;95063.09;;;-2.40;100.00
11487;BME280;10510;47.942;9.442;2023-04-04T00:23:04;95058.06;;;-2.42;100.00
11487;BME280;10510;47.942;9.442;2023-04-04T00:25:04;95061.56;;;-2.43;100.00
11487;BME280;10510;47.942;9.442;2023-04-04T00:27:05;95063.31;;;-2.43;100.00
11487;BME280;10510;47.942;9.442;2023-04-04T00:29:05;95056.50;;;-2.44;100.00
11487;BME280;10510;47.942;9.442;2023-04-04T00:31:05;95055.00;;;-2.47;100.00
11487;BME280;10510;47.942;9.442;2023-04-04T00:33:06;95054.25;;;-2.49;100.00
11487;BME280;10510;47.942;9.442;2023-04-04T00:35:07;95063.69;;;-2.49;100.00
11487;BME280;10510;47.942;9.442;2023-04-04T00:37:07;95051.06;;;-2.53;100.00
11487;BME280;10510;47.942;9.442;2023-04-04T00:39:11;95057.91;;;-2.53;100.00
11487;BME280;10510;47.942;9.442;2023-04-04T00:41:11;95055.63;;;-2.58;100.00
11487;BME280;10510;47.942;9.442;2023-04-04T00:43:12;95059.19;;;-2.60;100.00
11487;BME280;10510;47.942;9.442;2023-04-04T00:45:13;95058.47;;;-2.62;100.00
11487;BME280;10510;47.942;9.442;2023-04-04T00:47:13;95056.84;;;-2.63;100.00
11487;BME280;10510;47.942;9.442;2023-04-04T00:49:14;95050.97;;;-2.65;100.00
11487;BME280;10510;47.942;9.442;2023-04-04T00:51:14;95052.81;;;-2.67;100.00
11487;BME280;10510;47.942;9.442;2023-04-04T00:53:14;95058.84;;;-2.68;100.00
11487;BME280;10510;47.942;9.442;2023-04-04T00:55:15;95055.56;;;-2.70;100.00
11487;BME280;10510;47.942;9.442;2023-04-04T00:57:15;95054.00;;;-2.73;100.00
11487;BME280;10510;47.942;9.442;2023-04-04T00:59:16;95054.91;;;-2.74;100.00
11487;BME280;10510;47.942;9.442;2023-04-04T01:01:17;95049.78;;;-2.74;100.00
11487;BME280;10510;47.942;9.442;2023-04-04T01:03:17;95052.47;;;-2.76;100.00
11487;BME280;10510;47.942;9.442;2023-04-04T01:05:18;95048.22;;;-2.77;100.00
11487;BME280;10510;47.942;9.442;2023-04-04T01:07:18;95047.41;;;-2.77;100.00
11487;BME280;10510;47.942;9.442;2023-04-04T01:09:19;95042.31;;;-2.77;100.00
11487;BME280;10510;47.942;9.442;2023-04-04T01:11:19;95050.09;;;-2.79;100.00
11487;BME280;10510;47.942;9.442;2023-04-04T01:13:20;95043.41;;;-2.81;100.00
11487;BME280;10510;47.942;9.442;2023-04-04T01:15:21;95042.69;;;-2.83;100.00
11487;BME280;10510;47.942;9.442;2023-04-04T01:17:22;95040.94;;;-2.83;100.00
11487;BME280;10510;47.942;9.442;2023-04-04T01:20:00;95043.50;;;-2.83;100.00
11487;BME280;10510;47.942;9.442;2023-04-04T01:22:01;95042.78;;;-2.85;100.00
11487;BME280;10510;47.942;9.442;2023-04-04T01:24:03;95036.13;;;-2.87;100.00
11487;BME280;10510;47.942;9.442;2023-04-04T01:26:04;95038.66;;;-2.87;100.00
11487;BME280;10510;47.942;9.442;2023-04-04T01:28:05;95028.50;;;-2.89;100.00
11487;BME280;10510;47.942;9.442;2023-04-04T01:30:06;95026.06;;;-2.90;100.00
11487;BME280;10510;47.942;9.442;2023-04-04T01:32:27;95028.69;;;-2.92;100.00
11487;BME280;10510;47.942;9.442;2023-04-04T01:34:42;95022.03;;;-2.94;100.00
11487;BME280;10510;47.942;9.442;2023-04-04T01:36:46;95022.94;;;-2.95;100.00
11487;BME280;10510;47.942;9.442;2023-04-04T01:39:04;95026.44;;;-2.97;100.00
11487;BME280;10510;47.942;9.442;2023-04-04T01:41:07;95018.94;;;-3.00;100.00
11487;BME280;10510;47.942;9.442;2023-04-04T01:43:08;95028.44;;;-3.02;100.00
11487;BME280;10510;47.942;9.442;2023-04-04T01:45:09;95029.25;;;-3.01;100.00
11487;BME280;10510;47.942;9.442;2023-04-04T01:47:11;95022.59;;;-3.04;100.00
11487;BME280;10510;47.942;9.442;2023-04-04T01:49:12;95016.75;;;-3.06;100.00
11487;BME280;10510;47.942;9.442;2023-04-04T01:51:13;95019.50;;;-3.09;100.00
11487;BME280;10510;47.942;9.442;2023-04-04T01:53:13;95022.06;;;-3.09;100.00
11487;BME280;10510;47.942;9.442;2023-04-04T01:55:14;95015.38;;;-3.11;100.00
11487;BME280;10510;47.942;9.442;2023-04-04T01:57:14;95014.66;;;-3.13;100.00
11487;BME280;10510;47.942;9.442;2023-04-04T01:59:15;95012.16;;;-3.15;100.00
11487;BME280;10510;47.942;9.442;2023-04-04T02:01:15;95012.16;;;-3.15;100.00
11487;BME280;10510;47.942;9.442;2023-04-04T02:03:15;95008.91;;;-3.17;100.00
11487;BME280;10510;47.942;9.442;2023-04-04T02:05:16;95011.53;;;-3.18;100.00
11487;BME280;10510;47.942;9.442;2023-04-04T02:07:16;95009.09;;;-3.20;100.00
11487;BME280;10510;47.942;9.442;2023-04-04T02:09:17;95011.63;;;-3.20;100.00
11487;BME280;10510;47.942;9.442;2023-04-04T02:11:17;95008.25;;;-3.21;100.00
11487;BME280;10510;47.942;9.442;2023-04-04T02:13:21;95003.16;;;-3.21;100.00
11487;BME280;10510;47.942;9.442;2023-04-04T02:15:21;95004.97;;;-3.23;100.00
11487;BME280;10510;47.942;9.442;2023-04-04T02:17:22;95000.75;;;-3.24;100.00
11487;BME280;10510;47.942;9.442;2023-04-04T02:19:23;95004.22;;;-3.25;100.00
11487;BME280;10510;47.942;9.442;2023-04-04T02:21:23;94996.66;;;-3.26;100.00
11487;BME280;10510;47.942;9.442;2023-04-04T02:23:26;94996.75;;;-3.28;100.00
11487;BME280;10510;47.942;9.442;2023-04-04T02:25:26;94996.84;;;-3.29;100.00
11487;BME280;10510;47.942;9.442;2023-04-04T02:27:27;94992.63;;;-3.30;100.00
11487;BME280;10510;47.942;9.442;2023-04-04T02:29:27;94992.72;;;-3.32;100.00
11487;BME280;10510;47.942;9.442;2023-04-04T02:31:27;94983.41;;;-3.33;100.00
11487;BME280;10510;47.942;9.442;2023-04-04T02:33:28;94988.50;;;-3.33;100.00
11487;BME280;10510;47.942;9.442;2023-04-04T02:35:28;94981.75;;;-3.34;100.00
11487;BME280;10510;47.942;9.442;2023-04-04T02:37:29;94998.91;;;-3.36;100.00
11487;BME280;10510;47.942;9.442;2023-04-04T02:39:29;94982.88;;;-3.38;100.00
11487;BME280;10510;47.942;9.442;2023-04-04T02:41:30;94981.31;;;-3.40;100.00
11487;BME280;10510;47.942;9.442;2023-04-04T02:43:30;94984.69;;;-3.40;100.00
11487;BME280;10510;47.942;9.442;2023-04-04T02:45:30;94980.56;;;-3.43;100.00
11487;BME280;10510;47.942;9.442;2023-04-04T02:47:31;94983.25;;;-3.44;100.00
11487;BME280;10510;47.942;9.442;2023-04-04T02:49:31;94985.88;;;-3.46;100.00
11487;BME280;10510;47.942;9.442;2023-04-04T02:51:31;94982.50;;;-3.46;100.00
11487;BME280;10510;47.942;9.442;2023-04-04T02:53:32;94986.78;;;-3.47;100.00
11487;BME280;10510;47.942;9.442;2023-04-04T02:55:32;94980.94;;;-3.49;100.00
11487;BME280;10510;47.942;9.442;2023-04-04T02:57:33;94982.69;;;-3.49;100.00
11487;BME280;10510;47.942;9.442;2023-04-04T02:59:33;94984.50;;;-3.51;100.00
11487;BME280;10510;47.942;9.442;2023-04-04T03:01:34;94976.94;;;-3.53;100.00
11487;BME280;10510;47.942;9.442;2023-04-04T03:03:34;94987.16;;;-3.53;100.00
11487;BME280;10510;47.942;9.442;2023-04-04T03:05:34;94988.97;;;-3.55;100.00
11487;BME280;10510;47.942;9.442;2023-04-04T03:07:34;94971.16;;;-3.56;100.00
11487;BME280;10510;47.942;9.442;2023-04-04T03:09:35;94985.66;;;-3.57;100.00
11487;BME280;10510;47.942;9.442;2023-04-04T03:11:35;94984.94;;;-3.59;100.00
11487;BME280;10510;47.942;9.442;2023-04-04T03:13:35;94983.41;;;-3.61;100.00
11487;BME280;10510;47.942;9.442;2023-04-04T03:15:36;94987.66;;;-3.62;100.00
11487;BME280;10510;47.942;9.442;2023-04-04T03:17:36;94977.53;;;-3.63;100.00
11487;BME280;10510;47.942;9.442;2023-04-04T03:19:36;94979.34;;;-3.66;100.00
11487;BME280;10510;47.942;9.442;2023-04-04T03:21:36;94982.84;;;-3.67;100.00
11487;BME280;10510;47.942;9.442;2023-04-04T03:23:37;94984.66;;;-3.69;100.00
11487;BME280;10510;47.942;9.442;2023-04-04T03:25:37;94993.22;;;-3.70;100.00
11487;BME280;10510;47.942;9.442;2023-04-04T03:27:37;94983.19;;;-3.73;100.00
11487;BME280;10510;47.942;9.442;2023-04-04T03:29:38;94990.84;;;-3.73;100.00
11487;BME280;10510;47.942;9.442;2023-04-04T03:31:39;94993.47;;;-3.74;100.00
11487;BME280;10510;47.942;9.442;2023-04-04T03:33:40;94986.75;;;-3.75;100.00
11487;BME280;10510;47.942;9.442;2023-04-04T03:35:41;94985.09;;;-3.76;100.00
11487;BME280;10510;47.942;9.442;2023-04-04T03:37:42;94995.41;;;-3.78;100.00
11487;BME280;10510;47.942;9.442;2023-04-04T03:39:42;94988.72;;;-3.80;100.00
11487;BME280;10510;47.942;9.442;2023-04-04T03:41:42;94987.09;;;-3.81;100.00
11487;BME280;10510;47.942;9.442;2023-04-04T03:43:43;94990.66;;;-3.84;100.00
11487;BME280;10510;47.942;9.442;2023-04-04T03:45:44;94989.72;;;-3.83;100.00
11487;BME280;10510;47.942;9.442;2023-04-04T03:47:44;94991.38;;;-3.82;100.00
11487;BME280;10510;47.942;9.442;2023-04-04T03:49:44;94994.94;;;-3.84;100.00
11487;BME280;10510;47.942;9.442;2023-04-04T03:51:45;94991.56;;;-3.85;100.00
11487;BME280;10510;47.942;9.442;2023-04-04T03:53:45;94992.44;;;-3.86;100.00
11487;BME280;10510;47.942;9.442;2023-04-04T03:55:46;94991.75;;;-3.88;100.00
11487;BME280;10510;47.942;9.442;2023-04-04T03:57:46;94990.91;;;-3.89;100.00
11487;BME280;10510;47.942;9.442;2023-04-04T03:59:46;94995.19;;;-3.89;100.00
11487;BME280;10510;47.942;9.442;2023-04-04T04:01:47;94994.47;;;-3.91;100.00
11487;BME280;10510;47.942;9.442;2023-04-04T04:03:47;94990.25;;;-3.92;100.00
11487;BME280;10510;47.942;9.442;2023-04-04T04:05:47;94992.06;;;-3.94;100.00
11487;BME280;10510;47.942;9.442;2023-04-04T04:07:48;94990.44;;;-3.95;100.00
11487;BME280;10510;47.942;9.442;2023-04-04T04:09:48;95002.38;;;-3.96;100.00
11487;BME280;10510;47.942;9.442;2023-04-04T04:11:48;94996.47;;;-3.96;100.00
11487;BME280;10510;47.942;9.442;2023-04-04T04:13:48;94998.19;;;-3.97;100.00
11487;BME280;10510;47.942;9.442;2023-04-04T04:15:49;94995.72;;;-3.98;100.00
11487;BME280;10510;47.942;9.442;2023-04-04T04:17:49;94994.06;;;-3.99;100.00
11487;BME280;10510;47.942;9.442;2023-04-04T04:19:49;94994.88;;;-3.99;100.00
11487;BME280;10510;47.942;9.442;2023-04-04T04:21:50;94997.53;;;-4.00;100.00
11487;BME280;10510;47.942;9.442;2023-04-04T04:23:50;94999.25;;;-4.01;100.00
11487;BME280;10510;47.942;9.442;2023-04-04T04:25:51;94992.50;;;-4.02;100.00
11487;BME280;10510;47.942;9.442;2023-04-04T04:27:54;95001.00;;;-4.01;100.00
11487;BME280;10510;47.942;9.442;2023-04-04T04:29:55;94999.34;;;-4.02;100.00
11487;BME280;10510;47.942;9.442;2023-04-04T04:31:55;95003.72;;;-4.04;100.00
11487;BME280;10510;47.942;9.442;2023-04-04T04:33:56;95000.41;;;-4.06;100.00
11487;BME280;10510;47.942;9.442;2023-04-04T04:36:01;94997.97;;;-4.08;100.00
11487;BME280;10510;47.942;9.442;2023-04-04T04:38:02;95000.59;;;-4.09;100.00
11487;BME280;10510;47.942;9.442;2023-04-04T04:40:02;95011.63;;;-4.09;100.00
11487;BME280;10510;47.942;9.442;2023-04-04T04:42:02;95004.13;;;-4.12;100.00
11487;BME280;10510;47.942;9.442;2023-04-04T04:44:03;95004.25;;;-4.14;100.00
11487;BME280;10510;47.942;9.442;2023-04-04T04:46:03;95010.25;;;-4.15;100.00
11487;BME280;10510;47.942;9.442;2023-04-04T04:48:03;95011.16;;;-4.16;100.00
11487;BME280;10510;47.942;9.442;2023-04-04T04:50:04;95011.25;;;-4.17;100.00
11487;BME280;10510;47.942;9.442;2023-04-04T04:52:05;95007.94;;;-4.19;100.00
11487;BME280;10510;47.942;9.442;2023-04-04T04:54:05;95007.94;;;-4.19;100.00
11487;BME280;10510;47.942;9.442;2023-04-04T04:56:06;95004.66;;;-4.21;100.00
11487;BME280;10510;47.942;9.442;2023-04-04T04:58:06;95006.31;;;-4.20;100.00
11487;BME280;10510;47.942;9.442;2023-04-04T05:00:07;95008.78;;;-4.19;100.00
11487;BME280;10510;47.942;9.442;2023-04-04T05:02:09;95015.63;;;-4.19;100.00
11487;BME280;10510;47.942;9.442;2023-04-04T05:04:09;95012.25;;;-4.20;100.00
11487;BME280;10510;47.942;9.442;2023-04-04T05:06:09;95006.31;;;-4.20;100.00
11487;BME280;10510;47.942;9.442;2023-04-04T05:08:10;95005.41;;;-4.19;100.00
11487;BME280;10510;47.942;9.442;2023-04-04T05:10:10;95014.78;;;-4.20;100.00
11487;BME280;10510;47.942;9.442;2023-04-04T05:12:10;95010.56;;;-4.21;100.00
11487;BME280;10510;47.942;9.442;2023-04-04T05:14:11;95023.34;;;-4.21;100.00
11487;BME280;10510;47.942;9.442;2023-04-04T05:16:11;95012.31;;;-4.21;100.00
11487;BME280;10510;47.942;9.442;2023-04-04T05:18:12;95022.44;;;-4.20;100.00
11487;BME280;10510;47.942;9.442;2023-04-04T05:20:12;95014.78;;;-4.20;100.00
11487;BME280;10510;47.942;9.442;2023-04-04T05:22:12;95023.91;;;-4.16;100.00
11487;BME280;10510;47.942;9.442;2023-04-04T05:24:13;95022.19;;;-4.15;100.00
11487;BME280;10510;47.942;9.442;2023-04-04T05:26:13;95029.84;;;-4.15;100.00
11487;BME280;10510;47.942;9.442;2023-04-04T05:28:13;95029.59;;;-4.11;100.00
11487;BME280;10510;47.942;9.442;2023-04-04T05:30:14;95022.69;;;-4.08;100.00
11487;BME280;10510;47.942;9.442;2023-04-04T05:32:14;95026.88;;;-4.07;100.00
11487;BME280;10510;47.942;9.442;2023-04-04T05:34:15;95028.50;;;-4.06;100.00
11487;BME280;10510;47.942;9.442;2023-04-04T05:36:15;95022.41;;;-4.04;100.00
11487;BME280;10510;47.942;9.442;2023-04-04T05:38:15;95023.91;;;-4.00;100.00
11487;BME280;10510;47.942;9.442;2023-04-04T05:40:15;95029.66;;;-3.96;100.00
11487;BME280;10510;47.942;9.442;2023-04-04T05:42:16;95034.59;;;-3.93;100.00
11487;BME280;10510;47.942;9.442;2023-04-04T05:44:16;95025.13;;;-3.91;100.00
11487;BME280;10510;47.942;9.442;2023-04-04T05:46:17;95033.44;;;-3.88;100.00
11487;BME280;10510;47.942;9.442;2023-04-04T05:48:17;95023.75;;;-3.82;100.00
11487;BME280;10510;47.942;9.442;2023-04-04T05:50:17;95023.50;;;-3.78;100.00
11487;BME280;10510;47.942;9.442;2023-04-04T05:52:17;95024.97;;;-3.74;100.00
11487;BME280;10510;47.942;9.442;2023-04-04T05:54:17;95023.06;;;-3.70;100.00
11487;BME280;10510;47.942;9.442;2023-04-04T05:56:18;95024.53;;;-3.66;100.00
11487;BME280;10510;47.942;9.442;2023-04-04T05:58:18;95014.13;;;-3.63;100.00
11487;BME280;10510;47.942;9.442;2023-04-04T06:00:18;95025.91;;;-3.60;100.00
11487;BME280;10510;47.942;9.442;2023-04-04T06:02:19;95023.94;;;-3.55;100.00
11487;BME280;10510;47.942;9.442;2023-04-04T06:04:19;95031.31;;;-3.51;100.00
11487;BME280;10510;47.942;9.442;2023-04-04T06:06:20;95033.63;;;-3.46;100.00
11487;BME280;10510;47.942;9.442;2023-04-04T06:08:20;95023.22;;;-3.43;100.00
11487;BME280;10510;47.942;9.442;2023-04-04T06:10:21;95024.66;;;-3.39;100.00
11487;BME280;10510;47.942;9.442;2023-04-04T06:12:21;95025.31;;;-3.35;100.00
11487;BME280;10510;47.942;9.442;2023-04-04T06:14:21;95028.53;;;-3.32;100.00
11487;BME280;10510;47.942;9.442;2023-04-04T06:16:22;95031.59;;;-3.27;100.00
11487;BME280;10510;47.942;9.442;2023-04-04T06:18:22;95021.94;;;-3.22;100.00
11487;BME280;10510;47.942;9.442;2023-04-04T06:20:22;95029.34;;;-3.17;100.00
11487;BME280;10510;47.942;9.442;2023-04-04T06:22:23;95025.69;;;-3.13;100.00
11487;BME280;10510;47.942;9.442;2023-04-04T06:24:23;95031.44;;;-3.09;100.00
11487;BME280;10510;47.942;9.442;2023-04-04T06:26:23;95022.69;;;-3.05;100.00
11487;BME280;10510;47.942;9.442;2023-04-04T06:28:25;95022.41;;;-3.01;100.00
11487;BME280;10510;47.942;9.442;2023-04-04T06:30:26;95024.59;;;-2.94;100.00
11487;BME280;10510;47.942;9.442;2023-04-04T06:32:26;95037.94;;;-2.89;100.00
11487;BME280;10510;47.942;9.442;2023-04-04T06:34:27;95022.59;;;-2.89;100.00
11487;BME280;10510;47.942;9.442;2023-04-04T06:36:27;95023.88;;;-2.82;100.00
11487;BME280;10510;47.942;9.442;2023-04-04T06:38:27;95014.91;;;-2.75;100.00
11487;BME280;10510;47.942;9.442;2023-04-04T06:40:29;95015.88;;;-2.63;100.00
11487;BME280;10510;47.942;9.442;2023-04-04T06:42:29;95019.16;;;-2.47;100.00
11487;BME280;10510;47.942;9.442;2023-04-04T06:44:29;95025.69;;;-2.29;100.00
11487;BME280;10510;47.942;9.442;2023-04-04T06:46:29;95028.81;;;-2.11;100.00
11487;BME280;10510;47.942;9.442;2023-04-04T06:48:32;95027.97;;;-1.97;100.00
11487;BME280;10510;47.942;9.442;2023-04-04T06:50:32;95026.56;;;-1.75;100.00
11487;BME280;10510;47.942;9.442;2023-04-04T06:52:32;95028.94;;;-1.60;100.00
11487;BME280;10510;47.942;9.442;2023-04-04T06:54:33;95024.34;;;-1.42;100.00
11487;BME280;10510;47.942;9.442;2023-04-04T06:56:34;95025.72;;;-1.23;100.00
11487;BME280;10510;47.942;9.442;2023-04-04T06:58:35;95021.50;;;-1.11;100.00
11487;BME280;10510;47.942;9.442;2023-04-04T07:00:38;95018.94;;;-0.99;100.00
11487;BME280;10510;47.942;9.442;2023-04-04T07:02:38;95014.50;;;-0.84;100.00
11487;BME280;10510;47.942;9.442;2023-04-04T07:04:38;95006.06;;;-0.73;100.00
11487;BME280;10510;47.942;9.442;2023-04-04T07:06:39;95020.84;;;-0.64;100.00
11487;BME280;10510;47.942;9.442;2023-04-04T07:08:39;95022.44;;;-0.50;100.00
11487;BME280;10510;47.942;9.442;2023-04-04T07:10:39;95016.34;;;-0.36;100.00
11487;BME280;10510;47.942;9.442;2023-04-04T07:12:41;95026.69;;;-0.25;100.00
11487;BME280;10510;47.942;9.442;2023-04-04T07:14:41;95015.75;;;-0.16;100.00
11487;BME280;10510;47.942;9.442;2023-04-04T07:16:41;95020.44;;;-0.10;100.00
11487;BME280;10510;47.942;9.442;2023-04-04T07:18:42;95033.16;;;0.05;100.00
11487;BME280;10510;47.942;9.442;2023-04-04T07:20:45;95032.38;;;0.15;100.00
11487;BME280;10510;47.942;9.442;2023-04-04T07:22:45;95019.78;;;0.23;100.00
11487;BME280;10510;47.942;9.442;2023-04-04T07:24:46;95016.66;;;0.31;100.00
11487;BME280;10510;47.942;9.442;2023-04-04T07:26:47;95016.16;;;0.50;100.00
11487;BME280;10510;47.942;9.442;2023-04-04T07:28:47;95006.56;;;0.63;100.00
11487;BME280;10510;47.942;9.442;2023-04-04T07:30:47;95004.13;;;0.73;100.00
11487;BME280;10510;47.942;9.442;2023-04-04T07:32:55;95005.34;;;0.92;100.00
11487;BME280;10510;47.942;9.442;2023-04-04T07:34:56;95003.72;;;1.13;100.00
11487;BME280;10510;47.942;9.442;2023-04-04T07:36:57;95002.53;;;1.28;100.00
11487;BME280;10510;47.942;9.442;2023-04-04T07:38:57;94996.66;;;1.38;100.00
11487;BME280;10510;47.942;9.442;2023-04-04T07:40:58;94997.84;;;1.56;100.00
11487;BME280;10510;47.942;9.442;2023-04-04T07:42:58;95000.38;;;1.67;100.00
11487;BME280;10510;47.942;9.442;2023-04-04T07:44:58;95005.97;;;1.84;100.00
11487;BME280;10510;47.942;9.442;2023-04-04T07:46:58;94990.31;;;2.08;100.00
11487;BME280;10510;47.942;9.442;2023-04-04T07:48:59;94997.09;;;2.41;100.00
11487;BME280;10510;47.942;9.442;2023-04-04T07:51:03;95000.81;;;2.69;100.00
11487;BME280;10510;47.942;9.442;2023-04-04T07:53:03;94999.34;;;2.97;100.00
11487;BME280;10510;47.942;9.442;2023-04-04T07:55:04;94990.38;;;3.32;100.00
11487;BME280;10510;47.942;9.442;2023-04-04T07:57:06;94988.31;;;3.66;100.00
11487;BME280;10510;47.942;9.442;2023-04-04T07:59:08;94987.97;;;3.90;100.00
11487;BME280;10510;47.942;9.442;2023-04-04T08:01:08;94992.75;;;4.04;100.00
11487;BME280;10510;47.942;9.442;2023-04-04T08:03:09;94996.44;;;4.31;100.00
11487;BME280;10510;47.942;9.442;2023-04-04T08:05:09;94994.50;;;4.52;100.00
11487;BME280;10510;47.942;9.442;2023-04-04T08:07:10;94988.78;;;4.68;100.00
11487;BME280;10510;47.942;9.442;2023-04-04T08:09:10;94987.81;;;4.89;100.00
11487;BME280;10510;47.942;9.442;2023-04-04T08:11:10;94986.22;;;5.15;100.00
11487;BME280;10510;47.942;9.442;2023-04-04T08:13:11;94980.16;;;5.34;100.00
11487;BME280;10510;47.942;9.442;2023-04-04T08:15:12;94984.16;;;5.56;100.00
11487;BME280;10510;47.942;9.442;2023-04-04T08:17:12;94987.09;;;5.71;100.00
11487;BME280;10510;47.942;9.442;2023-04-04T08:19:18;94984.44;;;5.81;100.00
11487;BME280;10510;47.942;9.442;2023-04-04T08:21:18;94991.72;;;5.67;100.00
11487;BME280;10510;47.942;9.442;2023-04-04T08:23:18;94985.19;;;5.63;100.00
11487;BME280;10510;47.942;9.442;2023-04-04T08:25:19;94990.81;;;5.86;100.00
11487;BME280;10510;47.942;9.442;2023-04-04T08:27:19;94982.41;;;6.20;100.00
11487;BME280;10510;47.942;9.442;2023-04-04T08:29:19;94993.34;;;6.42;100.00
11487;BME280;10510;47.942;9.442;2023-04-04T08:31:20;94982.13;;;6.41;100.00
11487;BME280;10510;47.942;9.442;2023-04-04T08:33:21;94993.09;;;6.35;100.00
11487;BME280;10510;47.942;9.442;2023-04-04T08:35:23;94994.34;;;6.49;100.00
11487;BME280;10510;47.942;9.442;2023-04-04T08:37:23;94989.31;;;6.65;100.00
11487;BME280;10510;47.942;9.442;2023-04-04T08:39:23;94992.78;;;6.74;100.00
11487;BME280;10510;47.942;9.442;2023-04-04T08:41:23;94988.47;;;6.82;100.00
11487;BME280;10510;47.942;9.442;2023-04-04T08:43:25;94982.69;;;6.97;100.00
11487;BME280;10510;47.942;9.442;2023-04-04T08:45:27;94997.72;;;7.11;100.00
11487;BME280;10510;47.942;9.442;2023-04-04T08:47:34;94994.53;;;7.17;100.00
11487;BME280;10510;47.942;9.442;2023-04-04T08:49:37;94994.75;;;7.32;100.00
11487;BME280;10510;47.942;9.442;2023-04-04T08:51:41;95004.28;;;7.49;100.00
11487;BME280;10510;47.942;9.442;2023-04-04T08:53:42;94990.88;;;7.62;100.00
11487;BME280;10510;47.942;9.442;2023-04-04T08:55:42;94994.31;;;7.71;100.00
11487;BME280;10510;47.942;9.442;2023-04-04T08:57:43;94996.28;;;7.77;100.00
11487;BME280;10510;47.942;9.442;2023-04-04T08:59:43;94995.19;;;7.96;100.00
11487;BME280;10510;47.942;9.442;2023-04-04T09:01:43;95003.38;;;8.17;100.00
11487;BME280;10510;47.942;9.442;2023-04-04T09:03:44;95004.09;;;8.36;100.00
11487;BME280;10510;47.942;9.442;2023-04-04T09:05:45;95003.78;;;8.39;100.00
11487;BME280;10510;47.942;9.442;2023-04-04T09:07:46;95017.66;;;8.64;100.00
11487;BME280;10510;47.942;9.442;2023-04-04T09:09:47;95015.53;;;8.92;100.00
11487;BME280;10510;47.942;9.442;2023-04-04T09:11:49;95005.41;;;9.14;100.00
11487;BME280;10510;47.942;9.442;2023-04-04T09:13:51;95000.84;;;9.24;100.00
11487;BME280;10510;47.942;9.442;2023-04-04T09:15:52;95006.06;;;9.16;100.00
11487;BME280;10510;47.942;9.442;2023-04-04T09:17:53;95001.78;;;9.39;100.00
11487;BME280;10510;47.942;9.442;2023-04-04T09:19:54;95004.41;;;9.39;100.00
11487;BME280;10510;47.942;9.442;2023-04-04T09:21:54;94998.25;;;9.24;100.00
11487;BME280;10510;47.942;9.442;2023-04-04T09:24:02;95007.34;;;9.28;100.00
11487;BME280;10510;47.942;9.442;2023-04-04T09:26:03;95001.28;;;9.44;100.00
11487;BME280;10510;47.942;9.442;2023-04-04T09:28:04;95009.47;;;9.32;100.00
11487;BME280;10510;47.942;9.442;2023-04-04T09:30:05;95005.06;;;9.41;100.00
11487;BME280;10510;47.942;9.442;2023-04-04T09:32:15;95006.31;;;9.53;100.00
11487;BME280;10510;47.942;9.442;2023-04-04T09:34:17;95007.28;;;9.52;100.00
11487;BME280;10510;47.942;9.442;2023-04-04T09:36:18;94997.13;;;9.66;100.00
11487;BME280;10510;47.942;9.442;2023-04-04T09:38:20;94998.72;;;9.83;100.00
11487;BME280;10510;47.942;9.442;2023-04-04T09:40:22;95000.63;;;9.89;100.00
11487;BME280;10510;47.942;9.442;2023-04-04T09:42:23;95007.41;;;10.07;100.00
11487;BME280;10510;47.942;9.442;2023-04-04T09:44:24;95005.75;;;10.06;100.00
11487;BME280;10510;47.942;9.442;2023-04-04T09:46:25;95010.88;;;9.99;100.00
11487;BME280;10510;47.942;9.442;2023-04-04T09:48:31;95008.16;;;9.84;100.00
11487;BME280;10510;47.942;9.442;2023-04-04T09:50:32;95007.38;;;9.75;100.00
11487;BME280;10510;47.942;9.442;2023-04-04T09:52:33;95011.31;;;9.71;100.00
11487;BME280;10510;47.942;9.442;2023-04-04T09:54:36;95009.16;;;9.83;100.00
11487;BME280;10510;47.942;9.442;2023-04-04T09:56:36;94998.06;;;9.81;100.00
11487;BME280;10510;47.942;9.442;2023-04-04T09:58:45;95015.34;;;9.82;100.00
11487;BME280;10510;47.942;9.442;2023-04-04T10:00:46;95007.09;;;10.01;100.00
11487;BME280;10510;47.942;9.442;2023-04-04T10:02:47;95015.38;;;10.13;100.00
11487;BME280;10510;47.942;9.442;2023-04-04T10:04:48;95021.41;;;10.14;100.00
11487;BME280;10510;47.942;9.442;2023-04-04T10:06:49;95015.38;;;10.13;100.00
11487;BME280;10510;47.942;9.442;2023-04-04T10:08:49;95019.66;;;10.06;100.00
11487;BME280;10510;47.942;9.442;2023-04-04T10:10:50;95008.34;;;10.14;100.00
11487;BME280;10510;47.942;9.442;2023-04-04T10:12:51;95010.56;;;10.25;100.00
11487;BME280;10510;47.942;9.442;2023-04-04T10:14:58;95019.56;;;10.22;100.00
11487;BME280;10510;47.942;9.442;2023-04-04T10:16:59;95014.28;;;9.99;100.00
11487;BME280;10510;47.942;9.442;2023-04-04T10:19:00;95014.16;;;9.93;100.00
11487;BME280;10510;47.942;9.442;2023-04-04T10:21:03;95019.63;;;9.75;100.00
11487;BME280;10510;47.942;9.442;2023-04-04T10:23:05;95009.25;;;9.98;100.00
11487;BME280;10510;47.942;9.442;2023-04-04T10:25:06;95012.81;;;9.97;100.00
11487;BME280;10510;47.942;9.442;2023-04-04T10:27:06;95006.19;;;10.17;100.00
11487;BME280;10510;47.942;9.442;2023-04-04T10:29:07;95014.97;;;10.33;100.00
11487;BME280;10510;47.942;9.442;2023-04-04T10:31:24;95006.03;;;10.19;100.00
11487;BME280;10510;47.942;9.442;2023-04-04T10:35:45;95014.88;;;10.18;100.00
11487;BME280;10510;47.942;9.442;2023-04-04T10:37:58;95006.97;;;10.26;100.00